sensor_id;sensor_type;location;lat;lon;timestamp;temperature;humidity
59282;DHT22;45054;52.062;10.010;2023-01-01T10:22:13;14.10;99.90
59282;DHT22;45054;52.062;10.010;2023-01-01T10:24:43;14.00;99.90
59282;DHT22;45054;52.062;10.010;2023-01-01T10:27:22;14.00;99.90
59282;DHT22;45054;52.062;10.010;2023-01-01T10:29:50;14.10;99.90
59282;DHT22;45054;52.062;10.010;2023-01-01T10:32:19;14.20;99.90
59282;DHT22;45054;52.062;10.010;2023-01-01T10:34:45;14.40;99.90
59282;DHT22;45054;52.062;10.010;2023-01-01T10:37:12;14.40;99.90
59282;DHT22;45054;52.062;10.010;2023-01-01T10:39:38;14.40;99.90
59282;DHT22;45054;52.062;10.010;2023-01-01T10:42:04;14.40;99.90
59282;DHT22;45054;52.062;10.010;2023-01-01T10:44:32;14.40;99.90
59282;DHT22;45054;52.062;10.010;2023-01-01T10:47:02;14.40;99.90
59282;DHT22;45054;52.062;10.010;2023-01-01T10:49:28;14.40;99.90
59282;DHT22;45054;52.062;10.010;2023-01-01T10:51:54;14.40;99.90
59282;DHT22;45054;52.062;10.010;2023-01-01T10:54:32;14.50;99.90
59282;DHT22;45054;52.062;10.010;2023-01-01T10:56:58;14.50;99.90
59282;DHT22;45054;52.062;10.010;2023-01-01T10:59:36;14.50;99.90
59282;DHT22;45054;52.062;10.010;2023-01-01T11:02:15;14.50;99.90
59282;DHT22;45054;52.062;10.010;2023-01-01T11:04:41;14.50;99.90
59282;DHT22;45054;52.062;10.010;2023-01-01T11:07:07;14.50;99.90
59282;DHT22;45054;52.062;10.010;2023-01-01T11:09:34;14.50;99.90
59282;DHT22;45054;52.062;10.010;2023-01-01T11:12:01;14.60;99.90
59282;DHT22;45054;52.062;10.010;2023-01-01T11:14:29;14.60;99.90
59282;DHT22;45054;52.062;10.010;2023-01-01T11:16:58;14.60;99.90
59282;DHT22;45054;52.062;10.010;2023-01-01T11:19:27;14.70;99.90
59282;DHT22;45054;52.062;10.010;2023-01-01T11:21:53;14.70;99.90
59282;DHT22;45054;52.062;10.010;2023-01-01T11:24:21;14.70;99.90
59282;DHT22;45054;52.062;10.010;2023-01-01T11:26:49;14.70;99.90
59282;DHT22;45054;52.062;10.010;2023-01-01T11:29:21;14.70;99.90
59282;DHT22;45054;52.062;10.010;2023-01-01T11:31:47;14.70;99.90
59282;DHT22;45054;52.062;10.010;2023-01-01T11:34:27;14.70;99.90
59282;DHT22;45054;52.062;10.010;2023-01-01T11:37:09;14.70;99.90
59282;DHT22;45054;52.062;10.010;2023-01-01T11:39:36;14.70;99.90
59282;DHT22;45054;52.062;10.010;2023-01-01T11:42:07;14.70;99.90
59282;DHT22;45054;52.062;10.010;2023-01-01T11:44:35;14.70;99.90
59282;DHT22;45054;52.062;10.010;2023-01-01T11:47:03;14.70;99.90
59282;DHT22;45054;52.062;10.010;2023-01-01T11:49:30;14.80;99.90
59282;DHT22;45054;52.062;10.010;2023-01-01T11:51:56;14.80;99.90
59282;DHT22;45054;52.062;10.010;2023-01-01T11:54:24;14.80;99.90
59282;DHT22;45054;52.062;10.010;2023-01-01T11:56:55;14.80;99.90
59282;DHT22;45054;52.062;10.010;2023-01-01T11:59:26;14.80;99.90
59282;DHT22;45054;52.062;10.010;2023-01-01T12:01:56;14.80;99.90
59282;DHT22;45054;52.062;10.010;2023-01-01T12:04:26;14.80;99.90
59282;DHT22;45054;52.062;10.010;2023-01-01T12:06:56;14.80;99.90
59282;DHT22;45054;52.062;10.010;2023-01-01T12:09:28;14.70;99.90
59282;DHT22;45054;52.062;10.010;2023-01-01T12:12:00;14.70;99.90
59282;DHT22;45054;52.062;10.010;2023-01-01T12:14:33;14.70;99.90
59282;DHT22;45054;52.062;10.010;2023-01-01T12:17:03;14.70;99.90
59282;DHT22;45054;52.062;10.010;2023-01-01T12:19:31;14.60;99.90
59282;DHT22;45054;52.062;10.010;2023-01-01T12:21:59;14.60;99.90
59282;DHT22;45054;52.062;10.010;2023-01-01T12:24:31;14.60;99.90
59282;DHT22;45054;52.062;10.010;2023-01-01T12:27:15;14.60;99.90
59282;DHT22;45054;52.062;10.010;2023-01-01T12:29:54;14.60;99.90
59282;DHT22;45054;52.062;10.010;2023-01-01T12:32:31;14.50;99.90
59282;DHT22;45054;52.062;10.010;2023-01-01T12:35:09;14.60;99.90
59282;DHT22;45054;52.062;10.010;2023-01-01T12:37:45;14.60;99.90
59282;DHT22;45054;52.062;10.010;2023-01-01T12:40:37;14.60;99.90
59282;DHT22;45054;52.062;10.010;2023-01-01T12:43:05;14.60;99.90
59282;DHT22;45054;52.062;10.010;2023-01-01T12:45:44;14.60;99.90
59282;DHT22;45054;52.062;10.010;2023-01-01T12:48:41;14.60;99.90
59282;DHT22;45054;52.062;10.010;2023-01-01T12:51:23;14.60;99.90
59282;DHT22;45054;52.062;10.010;2023-01-01T12:53:58;14.60;99.90
59282;DHT22;45054;52.062;10.010;2023-01-01T12:56:33;14.70;99.90
59282;DHT22;45054;52.062;10.010;2023-01-01T12:59:02;14.70;99.90
59282;DHT22;45054;52.062;10.010;2023-01-01T13:01:32;14.70;99.90
59282;DHT22;45054;52.062;10.010;2023-01-01T13:03:59;14.70;99.90
59282;DHT22;45054;52.062;10.010;2023-01-01T13:06:30;14.80;99.90
59282;DHT22;45054;52.062;10.010;2023-01-01T13:09:04;14.90;99.90
59282;DHT22;45054;52.062;10.010;2023-01-01T13:11:32;14.80;99.90
59282;DHT22;45054;52.062;10.010;2023-01-01T13:13:58;14.80;99.90
59282;DHT22;45054;52.062;10.010;2023-01-01T13:16:34;14.90;99.90
59282;DHT22;45054;52.062;10.010;2023-01-01T13:19:00;14.90;99.90
59282;DHT22;45054;52.062;10.010;2023-01-01T13:21:26;14.90;99.90
59282;DHT22;45054;52.062;10.010;2023-01-01T13:23:52;14.80;99.90
59282;DHT22;45054;52.062;10.010;2023-01-01T13:26:37;14.80;99.90
59282;DHT22;45054;52.062;10.010;2023-01-01T13:29:32;14.80;99.90
59282;DHT22;45054;52.062;10.010;2023-01-01T13:32:10;14.80;99.90
59282;DHT22;45054;52.062;10.010;2023-01-01T13:43:30;14.80;99.90
59282;DHT22;45054;52.062;10.010;2023-01-01T13:45:57;14.80;99.90
59282;DHT22;45054;52.062;10.010;2023-01-01T13:51:54;14.70;99.90
59282;DHT22;45054;52.062;10.010;2023-01-01T13:55:02;14.70;99.90
59282;DHT22;45054;52.062;10.010;2023-01-01T13:57:52;14.70;99.90
59282;DHT22;45054;52.062;10.010;2023-01-01T14:00:23;14.70;99.90
59282;DHT22;45054;52.062;10.010;2023-01-01T14:02:51;14.60;99.90
59282;DHT22;45054;52.062;10.010;2023-01-01T14:05:21;14.60;99.90
59282;DHT22;45054;52.062;10.010;2023-01-01T14:07:51;14.60;99.90
59282;DHT22;45054;52.062;10.010;2023-01-01T14:10:26;14.60;99.90
59282;DHT22;45054;52.062;10.010;2023-01-01T14:12:53;14.50;99.90
59282;DHT22;45054;52.062;10.010;2023-01-01T14:15:26;14.50;99.90
59282;DHT22;45054;52.062;10.010;2023-01-01T14:17:53;14.50;99.90
59282;DHT22;45054;52.062;10.010;2023-01-01T14:20:22;14.40;99.90
59282;DHT22;45054;52.062;10.010;2023-01-01T14:22:50;14.40;99.90
59282;DHT22;45054;52.062;10.010;2023-01-01T14:25:21;14.40;99.90
59282;DHT22;45054;52.062;10.010;2023-01-01T14:27:50;14.40;99.90
59282;DHT22;45054;52.062;10.010;2023-01-01T14:30:17;14.30;99.90
59282;DHT22;45054;52.062;10.010;2023-01-01T14:32:43;14.30;99.90
59282;DHT22;45054;52.062;10.010;2023-01-01T14:35:13;14.30;99.90
59282;DHT22;45054;52.062;10.010;2023-01-01T14:37:39;14.20;99.90
59282;DHT22;45054;52.062;10.010;2023-01-01T14:40:14;14.20;99.90
59282;DHT22;45054;52.062;10.010;2023-01-01T14:42:40;14.20;99.90
59282;DHT22;45054;52.062;10.010;2023-01-01T14:45:13;14.20;99.90
59282;DHT22;45054;52.062;10.010;2023-01-01T14:47:39;14.20;99.90
59282;DHT22;45054;52.062;10.010;2023-01-01T14:50:11;14.10;99.90
59282;DHT22;45054;52.062;10.010;2023-01-01T14:52:37;14.10;99.90
59282;DHT22;45054;52.062;10.010;2023-01-01T14:55:06;14.10;99.90
59282;DHT22;45054;52.062;10.010;2023-01-01T14:57:34;14.10;99.90
59282;DHT22;45054;52.062;10.010;2023-01-01T15:00:03;14.00;99.90
59282;DHT22;45054;52.062;10.010;2023-01-01T15:02:39;14.10;99.90
59282;DHT22;45054;52.062;10.010;2023-01-01T15:05:26;14.00;99.90
59282;DHT22;45054;52.062;10.010;2023-01-01T15:07:55;14.00;99.90
59282;DHT22;45054;52.062;10.010;2023-01-01T15:10:22;13.90;99.90
59282;DHT22;45054;52.062;10.010;2023-01-01T15:12:49;13.90;99.90
59282;DHT22;45054;52.062;10.010;2023-01-01T15:15:33;13.90;99.90
59282;DHT22;45054;52.062;10.010;2023-01-01T15:17:58;13.90;99.90
59282;DHT22;45054;52.062;10.010;2023-01-01T15:20:24;13.80;99.90
59282;DHT22;45054;52.062;10.010;2023-01-01T15:22:50;13.70;99.90
59282;DHT22;45054;52.062;10.010;2023-01-01T15:25:17;13.70;99.90
59282;DHT22;45054;52.062;10.010;2023-01-01T15:27:49;13.70;99.90
59282;DHT22;45054;52.062;10.010;2023-01-01T15:30:23;13.60;99.90
59282;DHT22;45054;52.062;10.010;2023-01-01T15:32:49;13.60;99.90
59282;DHT22;45054;52.062;10.010;2023-01-01T15:35:20;13.50;99.90
59282;DHT22;45054;52.062;10.010;2023-01-01T15:37:48;13.60;99.90
59282;DHT22;45054;52.062;10.010;2023-01-01T15:40:32;13.50;99.90
59282;DHT22;45054;52.062;10.010;2023-01-01T15:43:13;13.50;99.90
59282;DHT22;45054;52.062;10.010;2023-01-01T15:45:41;13.50;99.90
59282;DHT22;45054;52.062;10.010;2023-01-01T15:48:18;13.50;99.90
59282;DHT22;45054;52.062;10.010;2023-01-01T15:53:54;13.50;99.90
59282;DHT22;45054;52.062;10.010;2023-01-01T15:56:22;13.40;99.90
59282;DHT22;45054;52.062;10.010;2023-01-01T15:58:52;13.50;99.90
59282;DHT22;45054;52.062;10.010;2023-01-01T16:01:20;13.50;99.90
59282;DHT22;45054;52.062;10.010;2023-01-01T16:03:48;13.50;99.90
59282;DHT22;45054;52.062;10.010;2023-01-01T16:06:14;13.50;99.90
59282;DHT22;45054;52.062;10.010;2023-01-01T16:08:41;13.50;99.90
59282;DHT22;45054;52.062;10.010;2023-01-01T16:11:06;13.50;99.90
59282;DHT22;45054;52.062;10.010;2023-01-01T16:13:32;13.50;99.90
59282;DHT22;45054;52.062;10.010;2023-01-01T16:16:00;13.50;99.90
59282;DHT22;45054;52.062;10.010;2023-01-01T16:18:28;13.50;99.90
59282;DHT22;45054;52.062;10.010;2023-01-01T16:20:54;13.50;99.90
59282;DHT22;45054;52.062;10.010;2023-01-01T16:23:20;13.50;99.90
59282;DHT22;45054;52.062;10.010;2023-01-01T16:25:46;13.50;99.90
59282;DHT22;45054;52.062;10.010;2023-01-01T16:28:12;13.50;99.90
59282;DHT22;45054;52.062;10.010;2023-01-01T16:30:37;13.50;99.90
59282;DHT22;45054;52.062;10.010;2023-01-01T16:33:09;13.50;99.90
59282;DHT22;45054;52.062;10.010;2023-01-01T16:35:37;13.40;99.90
59282;DHT22;45054;52.062;10.010;2023-01-01T16:38:02;13.40;99.90
59282;DHT22;45054;52.062;10.010;2023-01-01T16:40:28;13.40;99.90
59282;DHT22;45054;52.062;10.010;2023-01-01T16:42:53;13.30;99.90
59282;DHT22;45054;52.062;10.010;2023-01-01T16:45:19;13.30;99.90
59282;DHT22;45054;52.062;10.010;2023-01-01T16:47:45;13.30;99.90
59282;DHT22;45054;52.062;10.010;2023-01-01T16:50:12;13.30;99.90
59282;DHT22;45054;52.062;10.010;2023-01-01T16:52:37;13.30;99.90
59282;DHT22;45054;52.062;10.010;2023-01-01T16:55:03;13.30;99.90
59282;DHT22;45054;52.062;10.010;2023-01-01T16:57:29;13.20;99.90
59282;DHT22;45054;52.062;10.010;2023-01-01T16:59:55;13.20;99.90
59282;DHT22;45054;52.062;10.010;2023-01-01T17:02:20;13.20;99.90
59282;DHT22;45054;52.062;10.010;2023-01-01T17:04:46;13.20;99.90
59282;DHT22;45054;52.062;10.010;2023-01-01T17:07:13;13.30;99.90
59282;DHT22;45054;52.062;10.010;2023-01-01T17:09:39;13.20;99.90
59282;DHT22;45054;52.062;10.010;2023-01-01T17:12:04;13.20;99.90
59282;DHT22;45054;52.062;10.010;2023-01-01T17:14:30;13.20;99.90
59282;DHT22;45054;52.062;10.010;2023-01-01T17:16:56;13.20;99.90
59282;DHT22;45054;52.062;10.010;2023-01-01T17:19:21;13.20;99.90
59282;DHT22;45054;52.062;10.010;2023-01-01T17:21:49;13.20;99.90
59282;DHT22;45054;52.062;10.010;2023-01-01T17:24:18;13.20;99.90
59282;DHT22;45054;52.062;10.010;2023-01-01T17:26:44;13.10;99.90
59282;DHT22;45054;52.062;10.010;2023-01-01T17:29:10;13.10;99.90
59282;DHT22;45054;52.062;10.010;2023-01-01T17:31:36;13.20;99.90
59282;DHT22;45054;52.062;10.010;2023-01-01T17:34:02;13.20;99.90
59282;DHT22;45054;52.062;10.010;2023-01-01T17:36:27;13.20;99.90
59282;DHT22;45054;52.062;10.010;2023-01-01T17:38:53;13.10;99.90
59282;DHT22;45054;52.062;10.010;2023-01-01T17:41:21;13.10;99.90
59282;DHT22;45054;52.062;10.010;2023-01-01T17:43:49;13.20;99.90
59282;DHT22;45054;52.062;10.010;2023-01-01T17:46:17;13.10;99.90
59282;DHT22;45054;52.062;10.010;2023-01-01T17:48:43;13.20;99.90
59282;DHT22;45054;52.062;10.010;2023-01-01T17:51:09;13.10;99.90
59282;DHT22;45054;52.062;10.010;2023-01-01T17:53:35;13.10;99.90
59282;DHT22;45054;52.062;10.010;2023-01-01T17:56:01;13.10;99.90
59282;DHT22;45054;52.062;10.010;2023-01-01T17:58:30;13.10;99.90
59282;DHT22;45054;52.062;10.010;2023-01-01T18:01:10;13.10;99.90
59282;DHT22;45054;52.062;10.010;2023-01-01T18:03:39;13.00;99.90
59282;DHT22;45054;52.062;10.010;2023-01-01T18:06:05;13.00;99.90
59282;DHT22;45054;52.062;10.010;2023-01-01T18:08:31;13.00;99.90
59282;DHT22;45054;52.062;10.010;2023-01-01T18:10:57;13.00;99.90
59282;DHT22;45054;52.062;10.010;2023-01-01T18:13:22;13.00;99.90
59282;DHT22;45054;52.062;10.010;2023-01-01T18:15:49;12.90;99.90
59282;DHT22;45054;52.062;10.010;2023-01-01T18:18:15;12.90;99.90
59282;DHT22;45054;52.062;10.010;2023-01-01T18:20:41;12.90;99.90
59282;DHT22;45054;52.062;10.010;2023-01-01T18:23:07;12.90;99.90
59282;DHT22;45054;52.062;10.010;2023-01-01T18:25:32;12.90;99.90
59282;DHT22;45054;52.062;10.010;2023-01-01T18:27:58;12.90;99.90
59282;DHT22;45054;52.062;10.010;2023-01-01T18:30:24;12.90;99.90
59282;DHT22;45054;52.062;10.010;2023-01-01T18:32:52;13.00;99.90
59282;DHT22;45054;52.062;10.010;2023-01-01T18:35:18;12.90;99.90
59282;DHT22;45054;52.062;10.010;2023-01-01T18:37:43;12.90;99.90
59282;DHT22;45054;52.062;10.010;2023-01-01T18:40:11;12.90;99.90
59282;DHT22;45054;52.062;10.010;2023-01-01T18:42:40;12.80;99.90
59282;DHT22;45054;52.062;10.010;2023-01-01T18:45:14;12.80;99.90
59282;DHT22;45054;52.062;10.010;2023-01-01T18:47:40;12.80;99.90
59282;DHT22;45054;52.062;10.010;2023-01-01T18:50:15;12.80;99.90
59282;DHT22;45054;52.062;10.010;2023-01-01T18:52:41;12.80;99.90
59282;DHT22;45054;52.062;10.010;2023-01-01T18:55:11;12.80;99.90
59282;DHT22;45054;52.062;10.010;2023-01-01T18:57:38;12.80;99.90
59282;DHT22;45054;52.062;10.010;2023-01-01T19:00:14;12.80;99.90
59282;DHT22;45054;52.062;10.010;2023-01-01T19:02:44;12.80;99.90
59282;DHT22;45054;52.062;10.010;2023-01-01T19:05:16;12.70;99.90
59282;DHT22;45054;52.062;10.010;2023-01-01T19:07:43;12.70;99.90
59282;DHT22;45054;52.062;10.010;2023-01-01T19:10:11;12.70;99.90
59282;DHT22;45054;52.062;10.010;2023-01-01T19:12:37;12.70;99.90
59282;DHT22;45054;52.062;10.010;2023-01-01T19:15:12;12.70;99.90
59282;DHT22;45054;52.062;10.010;2023-01-01T19:17:38;12.70;99.90
59282;DHT22;45054;52.062;10.010;2023-01-01T19:20:15;12.70;99.90
59282;DHT22;45054;52.062;10.010;2023-01-01T19:22:41;12.70;99.90
59282;DHT22;45054;52.062;10.010;2023-01-01T19:25:31;12.70;99.90
59282;DHT22;45054;52.062;10.010;2023-01-01T19:30:52;12.70;99.90
59282;DHT22;45054;52.062;10.010;2023-01-01T19:33:17;12.60;99.90
59282;DHT22;45054;52.062;10.010;2023-01-01T19:35:44;12.60;99.90
59282;DHT22;45054;52.062;10.010;2023-01-01T19:38:10;12.60;99.90
59282;DHT22;45054;52.062;10.010;2023-01-01T19:40:35;12.60;99.90
59282;DHT22;45054;52.062;10.010;2023-01-01T19:43:01;12.70;99.90
59282;DHT22;45054;52.062;10.010;2023-01-01T19:45:27;12.60;99.90
59282;DHT22;45054;52.062;10.010;2023-01-01T19:47:52;12.60;99.90
59282;DHT22;45054;52.062;10.010;2023-01-01T19:50:18;12.60;99.90
59282;DHT22;45054;52.062;10.010;2023-01-01T19:52:45;12.60;99.90
59282;DHT22;45054;52.062;10.010;2023-01-01T19:55:10;12.60;99.90
59282;DHT22;45054;52.062;10.010;2023-01-01T19:57:36;12.50;99.90
59282;DHT22;45054;52.062;10.010;2023-01-01T20:00:03;12.60;99.90
59282;DHT22;45054;52.062;10.010;2023-01-01T20:02:29;12.60;99.90
59282;DHT22;45054;52.062;10.010;2023-01-01T20:04:54;12.50;99.90
59282;DHT22;45054;52.062;10.010;2023-01-01T20:07:20;12.60;99.90
59282;DHT22;45054;52.062;10.010;2023-01-01T20:09:47;12.50;99.90
59282;DHT22;45054;52.062;10.010;2023-01-01T20:12:12;12.60;99.90
59282;DHT22;45054;52.062;10.010;2023-01-01T20:14:38;12.60;99.90
59282;DHT22;45054;52.062;10.010;2023-01-01T20:17:04;12.60;99.90
59282;DHT22;45054;52.062;10.010;2023-01-01T20:19:29;12.60;99.90
59282;DHT22;45054;52.062;10.010;2023-01-01T20:21:55;12.60;99.90
59282;DHT22;45054;52.062;10.010;2023-01-01T20:24:20;12.50;99.90
59282;DHT22;45054;52.062;10.010;2023-01-01T20:26:47;12.50;99.90
59282;DHT22;45054;52.062;10.010;2023-01-01T20:29:13;12.50;99.90
59282;DHT22;45054;52.062;10.010;2023-01-01T20:31:39;12.50;99.90
59282;DHT22;45054;52.062;10.010;2023-01-01T20:34:04;12.50;99.90
59282;DHT22;45054;52.062;10.010;2023-01-01T20:36:30;12.50;99.90
59282;DHT22;45054;52.062;10.010;2023-01-01T20:38:56;12.50;99.90
59282;DHT22;45054;52.062;10.010;2023-01-01T20:41:21;12.40;99.90
59282;DHT22;45054;52.062;10.010;2023-01-01T20:43:48;12.40;99.90
59282;DHT22;45054;52.062;10.010;2023-01-01T20:46:14;12.30;99.90
59282;DHT22;45054;52.062;10.010;2023-01-01T20:48:40;12.30;99.90
59282;DHT22;45054;52.062;10.010;2023-01-01T20:51:05;12.30;99.90
59282;DHT22;45054;52.062;10.010;2023-01-01T20:53:31;12.30;99.90
59282;DHT22;45054;52.062;10.010;2023-01-01T20:55:56;12.30;99.90
59282;DHT22;45054;52.062;10.010;2023-01-01T20:58:22;12.20;99.90
59282;DHT22;45054;52.062;10.010;2023-01-01T21:00:49;12.20;99.90
59282;DHT22;45054;52.062;10.010;2023-01-01T21:03:15;12.20;99.90
59282;DHT22;45054;52.062;10.010;2023-01-01T21:05:40;12.20;99.90
59282;DHT22;45054;52.062;10.010;2023-01-01T21:08:06;12.20;99.90
59282;DHT22;45054;52.062;10.010;2023-01-01T21:10:31;12.10;99.90
59282;DHT22;45054;52.062;10.010;2023-01-01T21:12:57;12.10;99.90
59282;DHT22;45054;52.062;10.010;2023-01-01T21:15:22;12.10;99.90
59282;DHT22;45054;52.062;10.010;2023-01-01T21:17:49;12.00;99.90
59282;DHT22;45054;52.062;10.010;2023-01-01T21:20:15;12.00;99.90
59282;DHT22;45054;52.062;10.010;2023-01-01T21:22:41;12.00;99.90
59282;DHT22;45054;52.062;10.010;2023-01-01T21:25:14;12.00;99.90
59282;DHT22;45054;52.062;10.010;2023-01-01T21:27:41;12.00;99.90
59282;DHT22;45054;52.062;10.010;2023-01-01T21:30:10;11.90;99.90
59282;DHT22;45054;52.062;10.010;2023-01-01T21:32:37;11.90;99.90
59282;DHT22;45054;52.062;10.010;2023-01-01T21:35:14;11.80;99.90
59282;DHT22;45054;52.062;10.010;2023-01-01T21:37:40;11.80;99.90
59282;DHT22;45054;52.062;10.010;2023-01-01T21:40:35;11.80;99.90
59282;DHT22;45054;52.062;10.010;2023-01-01T21:43:19;11.80;99.90
59282;DHT22;45054;52.062;10.010;2023-01-01T21:45:47;11.80;99.90
59282;DHT22;45054;52.062;10.010;2023-01-01T21:48:15;11.80;99.90
59282;DHT22;45054;52.062;10.010;2023-01-01T21:50:43;11.80;99.90
59282;DHT22;45054;52.062;10.010;2023-01-01T21:53:13;11.80;99.90
59282;DHT22;45054;52.062;10.010;2023-01-01T21:55:42;11.80;99.90
59282;DHT22;45054;52.062;10.010;2023-01-01T21:58:10;11.80;99.90
59282;DHT22;45054;52.062;10.010;2023-01-01T22:00:37;11.80;99.90
59282;DHT22;45054;52.062;10.010;2023-01-01T22:03:09;11.80;99.90
59282;DHT22;45054;52.062;10.010;2023-01-01T22:05:37;11.80;99.90
59282;DHT22;45054;52.062;10.010;2023-01-01T22:08:22;11.80;99.90
59282;DHT22;45054;52.062;10.010;2023-01-01T22:10:48;11.80;99.90
59282;DHT22;45054;52.062;10.010;2023-01-01T22:13:16;11.80;99.90
59282;DHT22;45054;52.062;10.010;2023-01-01T22:15:43;11.80;99.90
59282;DHT22;45054;52.062;10.010;2023-01-01T22:18:16;11.80;99.90
59282;DHT22;45054;52.062;10.010;2023-01-01T22:20:44;11.80;99.90
59282;DHT22;45054;52.062;10.010;2023-01-01T22:23:30;11.80;99.90
59282;DHT22;45054;52.062;10.010;2023-01-01T22:25:56;11.80;99.90
59282;DHT22;45054;52.062;10.010;2023-01-01T22:28:23;11.80;99.90
59282;DHT22;45054;52.062;10.010;2023-01-01T22:30:51;11.80;99.90
59282;DHT22;45054;52.062;10.010;2023-01-01T22:33:19;11.90;99.90
59282;DHT22;45054;52.062;10.010;2023-01-01T22:35:46;11.90;99.90
59282;DHT22;45054;52.062;10.010;2023-01-01T22:38:14;11.90;99.90
59282;DHT22;45054;52.062;10.010;2023-01-01T22:40:46;11.90;99.90
59282;DHT22;45054;52.062;10.010;2023-01-01T22:43:16;11.90;99.90
59282;DHT22;45054;52.062;10.010;2023-01-01T22:45:43;11.90;99.90
59282;DHT22;45054;52.062;10.010;2023-01-01T22:48:15;11.90;99.90
59282;DHT22;45054;52.062;10.010;2023-01-01T22:50:43;11.80;99.90
59282;DHT22;45054;52.062;10.010;2023-01-01T22:53:09;11.80;99.90
59282;DHT22;45054;52.062;10.010;2023-01-01T22:55:34;11.80;99.90
59282;DHT22;45054;52.062;10.010;2023-01-01T22:58:01;11.80;99.90
59282;DHT22;45054;52.062;10.010;2023-01-01T23:00:27;11.80;99.90
59282;DHT22;45054;52.062;10.010;2023-01-01T23:02:52;11.80;99.90
59282;DHT22;45054;52.062;10.010;2023-01-01T23:05:20;11.80;99.90
59282;DHT22;45054;52.062;10.010;2023-01-01T23:07:45;11.70;99.90
59282;DHT22;45054;52.062;10.010;2023-01-01T23:10:12;11.70;99.90
59282;DHT22;45054;52.062;10.010;2023-01-01T23:12:39;11.80;99.90
59282;DHT22;45054;52.062;10.010;2023-01-01T23:15:07;11.80;99.90
59282;DHT22;45054;52.062;10.010;2023-01-01T23:17:32;11.90;99.90
59282;DHT22;45054;52.062;10.010;2023-01-01T23:19:58;11.80;99.90
59282;DHT22;45054;52.062;10.010;2023-01-01T23:22:24;11.80;99.90
59282;DHT22;45054;52.062;10.010;2023-01-01T23:24:50;11.80;99.90
59282;DHT22;45054;52.062;10.010;2023-01-01T23:27:16;11.70;99.90
59282;DHT22;45054;52.062;10.010;2023-01-01T23:29:43;11.70;99.90
59282;DHT22;45054;52.062;10.010;2023-01-01T23:32:11;11.80;99.90
59282;DHT22;45054;52.062;10.010;2023-01-01T23:34:38;11.80;99.90
59282;DHT22;45054;52.062;10.010;2023-01-01T23:37:03;11.80;99.90
59282;DHT22;45054;52.062;10.010;2023-01-01T23:39:29;11.80;99.90
59282;DHT22;45054;52.062;10.010;2023-01-01T23:41:55;11.80;99.90
59282;DHT22;45054;52.062;10.010;2023-01-01T23:44:20;11.80;99.90
59282;DHT22;45054;52.062;10.010;2023-01-01T23:46:46;11.80;99.90
59282;DHT22;45054;52.062;10.010;2023-01-01T23:49:13;11.80;99.90
59282;DHT22;45054;52.062;10.010;2023-01-01T23:51:39;11.80;99.90
59282;DHT22;45054;52.062;10.010;2023-01-01T23:54:05;11.80;99.90
59282;DHT22;45054;52.062;10.010;2023-01-01T23:56:31;11.90;99.90
59282;DHT22;45054;52.062;10.010;2023-01-01T23:58:56;11.90;99.90
